createdAt,value
2018-01-06T00:02:23.908Z,3.10
2018-01-06T00:04:50.900Z,3.60
2018-01-06T00:07:18.299Z,3.60
2018-01-06T00:09:45.012Z,3.50
2018-01-06T00:12:12.555Z,3.80
2018-01-06T00:14:40.983Z,3.17
2018-01-06T00:17:09.117Z,3.10
2018-01-06T00:19:37.040Z,3.70
2018-01-06T00:22:04.899Z,3.57
2018-01-06T00:24:32.342Z,3.17
2018-01-06T00:27:02.059Z,2.73
2018-01-06T00:29:30.958Z,3.40
2018-01-06T00:32:00.585Z,3.27
2018-01-06T00:34:28.608Z,3.30
2018-01-06T00:36:55.993Z,3.00
2018-01-06T00:39:24.151Z,3.17
2018-01-06T00:41:52.938Z,2.93
2018-01-06T00:44:20.289Z,3.07
2018-01-06T00:46:47.442Z,2.70
2018-01-06T00:49:15.621Z,2.93
2018-01-06T00:51:43.161Z,2.90
2018-01-06T00:54:10.327Z,2.93
2018-01-06T00:56:38.227Z,3.17
2018-01-06T00:59:05.876Z,2.70
2018-01-06T01:01:33.905Z,2.60
2018-01-06T01:04:02.918Z,2.93
2018-01-06T01:06:35.281Z,3.20
2018-01-06T01:09:02.676Z,3.37
2018-01-06T01:11:31.948Z,2.80
2018-01-06T01:13:59.104Z,3.17
2018-01-06T01:16:26.398Z,3.00
2018-01-06T01:18:53.776Z,3.07
2018-01-06T01:21:20.629Z,3.27
2018-01-06T01:23:48.686Z,3.30
2018-01-06T01:26:16.592Z,2.90
2018-01-06T01:28:43.970Z,3.03
2018-01-06T01:31:11.496Z,3.67
2018-01-06T01:33:39.758Z,2.93
2018-01-06T01:36:10.062Z,3.30
2018-01-06T01:38:37.258Z,3.17
2018-01-06T01:41:05.642Z,3.60
2018-01-06T01:43:34.188Z,3.10
2018-01-06T01:46:02.036Z,3.43
2018-01-06T01:48:29.907Z,3.00
2018-01-06T01:50:57.691Z,4.07
2018-01-06T01:53:25.926Z,3.53
2018-01-06T01:55:53.929Z,3.30
2018-01-06T01:58:22.357Z,3.30
2018-01-06T02:00:50.249Z,3.40
2018-01-06T02:03:17.984Z,3.87
2018-01-06T02:05:45.237Z,3.73
2018-01-06T02:08:12.329Z,4.73
2018-01-06T02:10:40.283Z,5.13
2018-01-06T02:13:07.501Z,5.40
2018-01-06T02:15:34.815Z,5.50
2018-01-06T02:18:02.030Z,5.13
2018-01-06T02:20:30.138Z,5.40
2018-01-06T02:22:58.394Z,5.83
2018-01-06T02:25:25.467Z,6.13
2018-01-06T02:27:53.390Z,5.77
2018-01-06T02:30:20.637Z,6.07
2018-01-06T02:32:49.115Z,5.60
2018-01-06T02:35:16.118Z,5.77
2018-01-06T02:37:43.523Z,6.40
2018-01-06T02:40:10.882Z,6.17
2018-01-06T02:42:39.053Z,6.40
2018-01-06T02:45:07.428Z,6.20
2018-01-06T02:47:35.613Z,5.63
2018-01-06T02:50:04.800Z,6.13
2018-01-06T02:52:32.173Z,6.90
2018-01-06T02:54:59.081Z,7.50
2018-01-06T02:57:32.293Z,6.63
2018-01-06T02:59:59.625Z,5.93
2018-01-06T03:02:27.105Z,6.80
2018-01-06T03:04:55.157Z,7.13
2018-01-06T03:07:23.125Z,6.43
2018-01-06T03:09:50.165Z,6.77
2018-01-06T03:12:17.235Z,6.30
2018-01-06T03:14:44.913Z,6.47
2018-01-06T03:17:12.161Z,6.50
2018-01-06T03:19:40.129Z,7.30
2018-01-06T03:22:07.157Z,7.00
2018-01-06T03:24:34.839Z,6.67
2018-01-06T03:27:01.981Z,6.73
2018-01-06T03:29:29.951Z,6.33
2018-01-06T03:31:58.717Z,7.03
2018-01-06T03:34:25.994Z,6.93
2018-01-06T03:36:53.931Z,6.73
2018-01-06T03:39:21.281Z,7.07
2018-01-06T03:41:48.532Z,7.37
2018-01-06T03:44:15.583Z,6.80
2018-01-06T03:46:43.468Z,6.27
2018-01-06T03:49:10.815Z,8.23
2018-01-06T03:51:38.925Z,6.80
2018-01-06T03:54:06.698Z,7.80
2018-01-06T03:56:34.874Z,6.60
2018-01-06T03:59:02.288Z,6.27
2018-01-06T04:01:30.481Z,5.97
2018-01-06T04:03:57.901Z,6.80
2018-01-06T04:06:25.262Z,5.80
2018-01-06T04:08:53.653Z,6.40
2018-01-06T04:11:21.039Z,6.50
2018-01-06T04:13:57.254Z,6.17
2018-01-06T04:16:25.630Z,6.30
2018-01-06T04:18:54.214Z,6.73
2018-01-06T04:21:22.074Z,7.27
2018-01-06T04:23:49.038Z,7.10
2018-01-06T04:26:16.474Z,7.10
2018-01-06T04:28:43.854Z,6.93
2018-01-06T04:31:15.409Z,5.63
2018-01-06T04:33:43.128Z,7.00
2018-01-06T04:36:10.707Z,6.20
2018-01-06T04:38:38.364Z,6.30
2018-01-06T04:41:05.766Z,6.47
2018-01-06T04:43:34.193Z,7.57
2018-01-06T04:46:04.007Z,7.00
2018-01-06T04:48:31.559Z,6.70
2018-01-06T04:50:58.394Z,7.83
2018-01-06T04:53:25.463Z,7.40
2018-01-06T04:55:53.517Z,7.70
2018-01-06T04:58:21.302Z,8.40
2018-01-06T05:00:48.729Z,8.57
2018-01-06T05:03:15.849Z,7.50
2018-01-06T05:05:43.341Z,9.03
2018-01-06T05:08:11.005Z,8.57
2018-01-06T05:10:38.644Z,9.93
2018-01-06T05:13:06.417Z,9.20
2018-01-06T05:15:33.516Z,9.77
2018-01-06T05:18:01.537Z,9.87
2018-01-06T05:20:29.710Z,10.77
2018-01-06T05:22:58.314Z,8.80
2018-01-06T05:25:26.266Z,10.87
2018-01-06T05:27:54.732Z,10.70
2018-01-06T05:30:21.890Z,10.00
2018-01-06T05:32:51.074Z,10.80
2018-01-06T05:35:18.033Z,10.60
2018-01-06T05:37:47.226Z,9.67
2018-01-06T05:40:15.101Z,9.33
2018-01-06T05:42:42.034Z,11.03
2018-01-06T05:45:09.376Z,11.03
2018-01-06T05:47:37.264Z,10.17
2018-01-06T05:50:05.535Z,10.37
2018-01-06T05:52:33.114Z,10.27
2018-01-06T05:55:02.567Z,11.67
2018-01-06T05:57:30.355Z,11.57
2018-01-06T05:59:58.772Z,10.60
2018-01-06T06:02:26.831Z,10.40
2018-01-06T06:04:55.069Z,11.70
2018-01-06T06:07:27.394Z,11.23
2018-01-06T06:09:55.238Z,11.53
2018-01-06T06:12:22.895Z,12.30
2018-01-06T06:14:51.260Z,11.60
2018-01-06T06:17:18.636Z,11.33
2018-01-06T06:19:47.601Z,11.80
2018-01-06T06:22:16.267Z,10.90
2018-01-06T06:24:44.054Z,11.93
2018-01-06T06:27:11.394Z,11.97
2018-01-06T06:29:46.423Z,12.10
2018-01-06T06:32:13.795Z,12.20
2018-01-06T06:34:41.233Z,11.70
2018-01-06T06:37:08.401Z,11.97
2018-01-06T06:39:36.239Z,14.33
2018-01-06T06:42:04.121Z,12.27
2018-01-06T06:44:32.922Z,12.73
2018-01-06T06:47:00.469Z,12.63
2018-01-06T06:49:28.258Z,13.23
2018-01-06T06:51:55.613Z,14.00
2018-01-06T06:54:24.499Z,12.57
2018-01-06T06:56:53.726Z,13.07
2018-01-06T06:59:21.214Z,12.53
2018-01-06T07:01:49.184Z,11.40
2018-01-06T07:04:17.034Z,13.33
2018-01-06T07:06:44.296Z,14.30
2018-01-06T07:09:11.649Z,14.30
2018-01-06T07:11:39.556Z,13.60
2018-01-06T07:14:08.314Z,14.77
2018-01-06T07:16:36.276Z,14.50
2018-01-06T07:19:03.408Z,15.33
2018-01-06T07:21:31.318Z,14.80
2018-01-06T07:23:58.741Z,13.37
2018-01-06T07:26:26.912Z,13.30
2018-01-06T07:28:55.524Z,14.53
2018-01-06T07:31:23.768Z,12.97
2018-01-06T07:33:52.224Z,15.10
2018-01-06T07:36:20.440Z,14.33
2018-01-06T07:38:48.442Z,14.20
2018-01-06T07:41:15.452Z,14.40
2018-01-06T07:43:43.114Z,16.17
2018-01-06T07:46:10.280Z,14.00
2018-01-06T07:48:37.605Z,14.50
2018-01-06T07:51:05.328Z,13.73
2018-01-06T07:53:32.820Z,14.13
2018-01-06T07:55:59.838Z,13.87
2018-01-06T07:58:32.448Z,14.23
2018-01-06T08:00:59.998Z,14.50
2018-01-06T08:03:27.757Z,13.90
2018-01-06T08:05:54.778Z,13.77
2018-01-06T08:08:21.970Z,15.80
2018-01-06T08:10:50.271Z,15.00
2018-01-06T08:13:19.041Z,16.60
2018-01-06T08:15:46.650Z,14.57
2018-01-06T08:18:14.658Z,15.43
2018-01-06T08:20:42.923Z,15.47
2018-01-06T08:23:09.881Z,15.13
2018-01-06T08:25:37.046Z,14.33
2018-01-06T08:28:05.152Z,14.33
2018-01-06T08:30:32.566Z,14.57
2018-01-06T08:33:00.624Z,14.40
2018-01-06T08:35:29.604Z,14.00
2018-01-06T08:37:56.919Z,14.90
2018-01-06T08:40:24.146Z,14.53
2018-01-06T08:42:51.754Z,14.00
2018-01-06T08:45:19.156Z,15.07
2018-01-06T08:47:48.780Z,15.23
2018-01-06T08:50:17.169Z,13.77
2018-01-06T08:52:44.821Z,14.67
2018-01-06T08:55:12.468Z,14.57
2018-01-06T08:57:39.676Z,14.40
2018-01-06T09:00:06.721Z,14.10
2018-01-06T09:02:34.421Z,13.77
2018-01-06T09:05:02.102Z,14.63
2018-01-06T09:07:30.120Z,14.20
2018-01-06T09:09:59.814Z,13.77
2018-01-06T09:12:28.273Z,12.80
2018-01-06T09:14:55.693Z,13.43
2018-01-06T09:17:23.155Z,12.70
2018-01-06T09:19:50.126Z,11.40
2018-01-06T09:22:17.407Z,13.00
2018-01-06T09:24:45.791Z,12.40
2018-01-06T09:27:17.441Z,12.10
2018-01-06T09:29:44.240Z,11.60
2018-01-06T09:32:11.631Z,11.80
2018-01-06T09:34:39.706Z,12.80
2018-01-06T09:37:08.800Z,11.57
2018-01-06T09:39:57.337Z,11.40
2018-01-06T09:42:24.392Z,10.77
2018-01-06T09:44:52.256Z,10.77
2018-01-06T09:47:19.991Z,9.77
2018-01-06T09:49:46.970Z,9.97
2018-01-06T09:52:14.514Z,11.43
2018-01-06T09:54:41.778Z,11.23
2018-01-06T09:57:09.801Z,10.73
2018-01-06T09:59:38.206Z,12.00
2018-01-06T10:02:05.096Z,11.97
2018-01-06T10:04:33.472Z,11.60
2018-01-06T10:07:01.101Z,10.47
2018-01-06T10:09:29.406Z,11.20
2018-01-06T10:11:56.645Z,10.47
2018-01-06T10:14:24.186Z,9.70
2018-01-06T10:16:52.372Z,10.87
2018-01-06T10:19:20.352Z,10.10
2018-01-06T10:21:47.924Z,9.73
2018-01-06T10:24:15.462Z,9.93
2018-01-06T10:26:42.048Z,9.73
2018-01-06T10:29:08.458Z,9.50
2018-01-06T10:31:34.897Z,10.13
2018-01-06T10:34:03.426Z,9.90
2018-01-06T10:36:30.075Z,10.60
2018-01-06T10:38:58.447Z,10.47
2018-01-06T10:41:25.120Z,9.17
2018-01-06T10:43:51.508Z,9.73
2018-01-06T10:46:17.899Z,9.00
2018-01-06T10:48:44.323Z,9.27
2018-01-06T10:51:10.733Z,9.70
2018-01-06T10:53:37.327Z,8.93
2018-01-06T10:56:04.486Z,8.63
2018-01-06T10:58:31.723Z,8.40
2018-01-06T11:01:05.291Z,8.60
2018-01-06T11:03:32.044Z,9.03
2018-01-06T11:05:58.575Z,8.83
2018-01-06T11:08:25.015Z,8.70
2018-01-06T11:10:51.395Z,7.63
2018-01-06T11:13:18.933Z,8.30
2018-01-06T11:15:49.050Z,9.93
2018-01-06T11:18:15.769Z,8.53
2018-01-06T11:20:42.183Z,9.27
2018-01-06T11:23:08.638Z,7.50
2018-01-06T11:25:35.924Z,8.47
2018-01-06T11:28:02.400Z,7.90
2018-01-06T11:30:28.828Z,8.03
2018-01-06T11:32:55.734Z,8.10
2018-01-06T11:35:26.460Z,8.90
2018-01-06T11:37:56.755Z,7.70
2018-01-06T11:40:27.999Z,9.00
2018-01-06T11:42:57.035Z,8.27
2018-01-06T11:45:24.651Z,8.20
2018-01-06T11:47:52.952Z,8.00
2018-01-06T11:50:19.411Z,9.10
2018-01-06T11:52:46.672Z,9.00
2018-01-06T11:55:13.197Z,8.60
2018-01-06T11:57:39.725Z,7.37
2018-01-06T12:00:08.043Z,7.90
2018-01-06T12:08:54.034Z,7.83
2018-01-06T12:11:20.490Z,7.67
2018-01-06T12:13:47.699Z,6.10
2018-01-06T12:16:14.187Z,7.30
2018-01-06T12:18:40.712Z,8.30
2018-01-06T12:21:08.036Z,7.20
2018-01-06T12:23:35.258Z,8.03
2018-01-06T12:26:01.650Z,7.13
2018-01-06T12:28:28.090Z,7.57
2018-01-06T12:30:54.534Z,7.03
2018-01-06T12:33:21.036Z,6.10
2018-01-06T12:35:47.469Z,5.10
2018-01-06T12:38:14.106Z,5.97
2018-01-06T12:40:40.537Z,7.50
2018-01-06T12:46:18.039Z,6.50
2018-01-06T12:48:44.561Z,8.03
2018-01-06T12:51:11.781Z,7.50
2018-01-06T12:53:38.331Z,6.83
2018-01-06T12:56:04.736Z,6.70
2018-01-06T12:58:31.176Z,8.37
2018-01-06T13:00:57.665Z,8.00
2018-01-06T13:03:24.900Z,6.03
2018-01-06T13:05:51.314Z,5.93
2018-01-06T13:08:18.503Z,5.53
2018-01-06T13:10:45.668Z,5.70
2018-01-06T13:13:12.143Z,4.63
2018-01-06T13:15:38.682Z,5.30
2018-01-06T13:18:06.635Z,7.00
2018-01-06T13:20:33.079Z,6.57
2018-01-06T13:22:59.852Z,6.90
2018-01-06T13:25:27.007Z,5.50
2018-01-06T13:27:53.437Z,5.40
2018-01-06T13:30:20.608Z,6.37
2018-01-06T13:32:47.008Z,5.50
2018-01-06T13:35:13.420Z,5.50
2018-01-06T13:37:39.929Z,6.50
2018-01-06T13:40:06.411Z,7.27
2018-01-06T13:42:33.702Z,7.87
2018-01-06T13:45:00.300Z,7.53
2018-01-06T13:47:27.519Z,7.13
2018-01-06T13:49:53.951Z,6.63
2018-01-06T13:52:20.355Z,7.10
2018-01-06T13:54:46.763Z,7.60
2018-01-06T13:57:13.310Z,9.13
2018-01-06T13:59:39.757Z,10.13
2018-01-06T14:02:06.216Z,9.33
2018-01-06T14:04:32.652Z,10.20
2018-01-06T14:06:59.218Z,9.50
2018-01-06T14:09:25.616Z,8.93
2018-01-06T14:11:52.086Z,9.80
2018-01-06T14:14:18.695Z,9.93
2018-01-06T14:16:45.129Z,11.07
2018-01-06T14:19:11.553Z,9.67
2018-01-06T14:21:38.017Z,10.07
2018-01-06T14:24:04.529Z,9.17
2018-01-06T14:26:30.998Z,9.47
2018-01-06T14:28:57.500Z,10.63
2018-01-06T14:31:23.968Z,10.23
2018-01-06T14:33:51.142Z,9.40
2018-01-06T14:36:18.346Z,8.80
2018-01-06T14:38:44.872Z,9.20
2018-01-06T14:41:11.328Z,7.23
2018-01-06T14:43:39.292Z,8.30
2018-01-06T14:46:05.689Z,7.50
2018-01-06T14:48:32.109Z,8.07
2018-01-06T14:50:58.519Z,9.30
2018-01-06T14:53:24.915Z,9.77
2018-01-06T14:55:51.363Z,10.30
2018-01-06T14:58:17.866Z,11.33
2018-01-06T15:00:44.368Z,10.07
2018-01-06T15:03:10.946Z,11.43
2018-01-06T15:05:37.458Z,10.33
2018-01-06T15:08:03.928Z,11.70
2018-01-06T15:10:30.327Z,11.87
2018-01-06T15:12:56.985Z,11.90
2018-01-06T15:15:27.078Z,13.03
2018-01-06T15:17:53.605Z,12.27
2018-01-06T15:20:20.083Z,12.47
2018-01-06T15:22:46.547Z,11.90
2018-01-06T15:25:12.991Z,11.13
2018-01-06T15:27:39.543Z,10.80
2018-01-06T15:30:05.958Z,10.63
2018-01-06T15:32:32.404Z,11.23
2018-01-06T15:34:58.864Z,11.00
2018-01-06T15:37:25.356Z,11.67
2018-01-06T15:39:51.784Z,10.73
2018-01-06T15:42:18.982Z,10.60
2018-01-06T15:44:45.423Z,11.10
2018-01-06T15:47:11.972Z,11.50
2018-01-06T15:49:39.335Z,11.50
2018-01-06T15:52:06.537Z,12.57
2018-01-06T15:54:33.101Z,13.53
2018-01-06T15:56:59.599Z,12.23
2018-01-06T15:59:26.095Z,13.60
2018-01-06T16:01:52.596Z,14.37
2018-01-06T16:04:19.070Z,15.70
2018-01-06T16:06:45.530Z,14.60
2018-01-06T16:09:12.010Z,16.40
2018-01-06T16:11:38.494Z,15.63
2018-01-06T16:14:04.950Z,15.43
2018-01-06T16:16:31.427Z,15.90
2018-01-06T16:18:57.864Z,17.83
2018-01-06T16:21:24.279Z,17.67
2018-01-06T16:23:50.782Z,15.53
2018-01-06T16:26:17.196Z,15.77
2018-01-06T16:28:43.594Z,16.37
2018-01-06T16:31:10.064Z,15.00
2018-01-06T16:33:36.570Z,13.70
2018-01-06T16:36:03.780Z,12.40
2018-01-06T16:38:30.168Z,13.13
2018-01-06T16:40:56.678Z,12.00
2018-01-06T16:43:23.126Z,9.77
2018-01-06T16:45:50.411Z,8.23
2018-01-06T16:48:16.946Z,5.63
2018-01-06T16:50:43.329Z,6.57
2018-01-06T16:53:09.866Z,5.40
2018-01-06T16:55:36.287Z,6.30
2018-01-06T16:58:02.778Z,4.63
2018-01-06T17:00:29.224Z,6.53
2018-01-06T17:02:55.672Z,5.50
2018-01-06T17:05:22.236Z,4.70
2018-01-06T17:07:49.564Z,5.57
2018-01-06T17:10:16.012Z,5.13
2018-01-06T17:12:42.560Z,5.43
2018-01-06T17:15:08.963Z,6.20
2018-01-06T17:17:35.733Z,7.47
2018-01-06T17:20:02.345Z,9.13
2018-01-06T17:22:28.917Z,7.70
2018-01-06T17:24:56.093Z,8.27
2018-01-06T17:27:22.510Z,10.17
2018-01-06T17:29:49.697Z,8.67
2018-01-06T17:32:16.267Z,7.80
2018-01-06T17:34:42.730Z,7.20
2018-01-06T17:37:09.898Z,7.30
2018-01-06T17:39:36.355Z,6.40
2018-01-06T17:42:02.832Z,6.57
2018-01-06T17:44:29.977Z,6.20
2018-01-06T17:46:56.448Z,6.60
2018-01-06T17:49:22.848Z,7.20
2018-01-06T17:51:49.279Z,6.00
2018-01-06T17:54:15.687Z,5.80
2018-01-06T17:56:42.098Z,6.20
2018-01-06T17:59:08.524Z,5.87
2018-01-06T18:01:35.076Z,6.03
2018-01-06T18:04:01.642Z,5.40
2018-01-06T18:06:28.045Z,6.13
2018-01-06T18:08:54.572Z,6.13
2018-01-06T18:11:21.795Z,5.93
2018-01-06T18:13:48.191Z,5.30
2018-01-06T18:16:14.653Z,5.90
2018-01-06T18:18:41.161Z,6.53
2018-01-06T18:21:07.570Z,5.13
2018-01-06T18:23:34.130Z,5.20
2018-01-06T18:26:00.552Z,4.53
2018-01-06T18:28:26.998Z,5.10
2018-01-06T18:30:54.239Z,4.50
2018-01-06T18:33:20.660Z,4.97
2018-01-06T18:35:47.215Z,5.13
2018-01-06T18:38:14.417Z,5.40
2018-01-06T18:40:40.819Z,5.63
2018-01-06T18:43:07.333Z,5.80
2018-01-06T18:45:33.774Z,4.23
2018-01-06T18:48:00.207Z,4.80
2018-01-06T18:50:27.429Z,5.50
2018-01-06T18:52:53.849Z,5.60
2018-01-06T18:55:20.242Z,6.03
2018-01-06T18:57:47.444Z,5.30
2018-01-06T19:00:13.889Z,5.60
2018-01-06T19:02:40.300Z,5.40
2018-01-06T19:05:06.736Z,4.80
2018-01-06T19:07:33.252Z,6.67
2018-01-06T19:09:59.731Z,5.20
2018-01-06T19:12:26.207Z,5.07
2018-01-06T19:14:53.484Z,6.00
2018-01-06T19:17:19.929Z,5.23
2018-01-06T19:19:47.311Z,5.77
2018-01-06T19:22:14.515Z,4.67
2018-01-06T19:24:41.087Z,5.70
2018-01-06T19:27:07.632Z,5.70
2018-01-06T19:29:34.969Z,6.40
2018-01-06T19:32:02.161Z,6.13
2018-01-06T19:34:28.593Z,5.53
2018-01-06T19:36:55.766Z,6.70
2018-01-06T19:39:22.193Z,6.77
2018-01-06T19:41:48.657Z,6.20
2018-01-06T19:44:15.229Z,7.40
2018-01-06T19:46:41.675Z,7.07
2018-01-06T19:49:08.113Z,5.50
2018-01-06T19:51:35.647Z,6.10
2018-01-06T19:54:02.075Z,5.50
2018-01-06T19:56:28.482Z,7.40
2018-01-06T19:58:54.983Z,6.70
2018-01-06T20:01:21.426Z,6.50
2018-01-06T20:03:47.868Z,5.83
2018-01-06T20:06:14.354Z,5.50
2018-01-06T20:08:40.802Z,5.33
2018-01-06T20:11:07.967Z,5.97
2018-01-06T20:13:34.427Z,5.70
2018-01-06T20:16:00.977Z,5.03
2018-01-06T20:18:27.538Z,6.30
2018-01-06T20:20:53.959Z,6.13
2018-01-06T20:23:20.482Z,5.73
2018-01-06T20:25:47.049Z,5.37
2018-01-06T20:28:13.524Z,5.33
2018-01-06T20:30:40.642Z,5.40
2018-01-06T20:33:07.854Z,6.73
2018-01-06T20:35:34.340Z,5.70
2018-01-06T20:38:01.596Z,5.70
2018-01-06T20:40:27.997Z,5.77
2018-01-06T20:42:54.452Z,5.17
2018-01-06T20:45:21.623Z,6.03
2018-01-06T20:47:48.079Z,5.07
2018-01-06T20:50:14.524Z,4.90
2018-01-06T20:52:41.079Z,5.27
2018-01-06T20:55:08.619Z,5.73
2018-01-06T20:57:35.066Z,5.50
2018-01-06T21:00:01.570Z,4.80
2018-01-06T21:02:27.990Z,4.90
2018-01-06T21:04:54.572Z,5.93
2018-01-06T21:07:21.764Z,4.90
2018-01-06T21:09:48.178Z,5.63
2018-01-06T21:12:14.791Z,4.53
2018-01-06T21:14:41.955Z,4.53
2018-01-06T21:17:08.481Z,3.87
2018-01-06T21:19:35.675Z,4.03
2018-01-06T21:22:02.103Z,4.40
2018-01-06T21:24:28.702Z,3.63
2018-01-06T21:26:55.953Z,4.70
2018-01-06T21:29:23.193Z,4.40
2018-01-06T21:31:49.640Z,3.47
2018-01-06T21:34:16.817Z,3.73
2018-01-06T21:36:43.426Z,4.13
2018-01-06T21:39:10.608Z,3.80
2018-01-06T21:41:37.131Z,3.70
2018-01-06T21:44:04.464Z,3.70
2018-01-06T21:46:31.904Z,3.50
2018-01-06T21:48:58.391Z,4.10
2018-01-06T21:51:25.895Z,3.93
2018-01-06T21:53:52.299Z,4.20
2018-01-06T21:56:18.719Z,4.13
2018-01-06T21:58:45.317Z,3.37
2018-01-06T22:01:11.755Z,3.60
2018-01-06T22:03:39.006Z,4.13
2018-01-06T22:06:06.173Z,3.27
2018-01-06T22:08:33.352Z,3.50
2018-01-06T22:10:59.786Z,3.00
2018-01-06T22:13:26.252Z,3.30
2018-01-06T22:15:53.448Z,3.03
2018-01-06T22:18:19.950Z,3.53
2018-01-06T22:20:46.351Z,3.43
2018-01-06T22:23:13.611Z,3.33
2018-01-06T22:25:40.171Z,2.70
2018-01-06T22:28:07.437Z,3.20
2018-01-06T22:30:33.935Z,3.47
2018-01-06T22:33:00.393Z,3.30
2018-01-06T22:35:26.853Z,2.97
2018-01-06T22:37:53.384Z,3.30
2018-01-06T22:40:20.590Z,3.43
2018-01-06T22:42:47.020Z,3.30
2018-01-06T22:45:13.497Z,3.57
2018-01-06T22:47:41.138Z,3.17
2018-01-06T22:50:07.768Z,3.23
2018-01-06T22:52:34.259Z,3.17
2018-01-06T22:55:00.707Z,2.90
2018-01-06T22:57:27.149Z,2.73
2018-01-06T22:59:53.555Z,2.50
2018-01-06T23:02:20.793Z,2.67
2018-01-06T23:04:47.285Z,3.20
2018-01-06T23:07:13.694Z,2.93
2018-01-06T23:09:40.171Z,2.83
2018-01-06T23:12:07.378Z,2.80
2018-01-06T23:14:33.814Z,3.40
2018-01-06T23:17:00.289Z,2.97
2018-01-06T23:19:27.604Z,3.00
2018-01-06T23:21:54.048Z,2.20
2018-01-06T23:24:20.511Z,2.00
2018-01-06T23:26:47.034Z,2.20
2018-01-06T23:29:15.006Z,2.17
2018-01-06T23:31:42.201Z,2.57
2018-01-06T23:34:08.603Z,5.17
2018-01-06T23:36:35.837Z,3.13
2018-01-06T23:39:03.141Z,2.37
2018-01-06T23:41:29.727Z,4.87
2018-01-06T23:43:56.112Z,2.00
2018-01-06T23:46:22.592Z,2.33
2018-01-06T23:48:49.126Z,2.60
2018-01-06T23:51:15.532Z,2.47
2018-01-06T23:53:41.982Z,2.73
2018-01-06T23:56:09.882Z,2.43
2018-01-06T23:58:36.369Z,2.40
